Time;durP1;ratioP1;P1;durP2;ratioP2;P2;SDS_P1;SDS_P2;PMS_P1;PMS_P2;Temp;Humidity;BMP_temperature;BMP_pressure;BME280_temperature;BME280_humidity;BME280_pressure;Samples;Min_cycle;Max_cycle;Signal;HPM_P1;HPM_P2
2021/12/03 00:00:39;;;;;;;;;;;;;;;-144.19;97.47;77866.78;5077981;28;20234;-88
2021/12/03 00:03:07;;;;;;;32.17;14.75;;;;;;;-144.19;97.53;77862.84;5096029;28;19927;-89
2021/12/03 00:05:33;;;;;;;28.73;14.98;;;;;;;-144.19;97.81;77870.72;5095556;28;20048;-89
2021/12/03 00:08:00;;;;;;;25.40;14.48;;;;;;;-144.19;97.88;77866.78;5077377;28;20054;-87
2021/12/03 00:10:27;;;;;;;19.92;11.57;;;;;;;-144.19;98.10;77866.78;5075601;28;20481;-89
2021/12/03 00:12:55;;;;;;;19.60;11.90;;;;;;;-144.19;98.20;77862.84;5074330;28;20054;-88
2021/12/03 00:15:25;;;;;;;28.98;13.35;;;;;;;-144.19;98.34;77847.09;5055931;28;20053;-88
2021/12/03 00:17:52;;;;;;;21.88;11.75;;;;;;;-144.19;97.92;77845.13;5074207;28;20048;-88
2021/12/03 00:20:19;;;;;;;20.80;12.55;;;;;;;-144.19;97.54;77831.31;5056550;28;20080;-89
2021/12/03 00:22:50;;;;;;;17.90;11.38;;;;;;;-144.19;97.52;77839.19;5056459;28;20067;-89
2021/12/03 00:25:17;;;;;;;25.02;13.52;;;;;;;-144.19;97.55;77819.50;5062952;28;20048;-90
2021/12/03 00:27:43;;;;;;;23.80;13.70;;;;;;;-144.19;97.26;77819.50;5076561;28;20055;-89
2021/12/03 00:30:13;;;;;;;21.83;13.95;;;;;;;-144.19;97.16;77807.69;5076225;28;20048;-88
2021/12/03 00:32:39;;;;;;;21.10;12.38;;;;;;;-144.19;97.14;77807.69;5076690;28;20056;-88
2021/12/03 00:35:08;;;;;;;26.10;16.15;;;;;;;-144.19;96.92;77815.56;5065181;28;20048;-90
2021/12/03 00:37:36;;;;;;;21.75;12.60;;;;;;;-144.19;96.73;77807.69;5055547;28;20094;-86
2021/12/03 00:40:04;;;;;;;30.05;14.27;;;;;;;-144.19;96.84;77805.72;5085432;28;20498;-88
2021/12/03 00:42:31;;;;;;;28.50;16.10;;;;;;;-144.19;96.36;77811.63;5057486;28;20051;-89
2021/12/03 00:44:57;;;;;;;;;;;;;;;-144.19;96.30;77821.47;5085624;28;20044;-90
2021/12/03 00:47:25;;;;;;;24.73;14.75;;;;;;;-144.19;96.04;77819.50;5075531;28;19920;-89
2021/12/03 00:49:51;;;;;;;30.33;16.33;;;;;;;-144.19;96.32;77837.22;5075811;28;20044;-89
2021/12/03 00:52:18;;;;;;;27.88;15.88;;;;;;;-144.19;96.46;77831.31;5074651;28;20048;-88
2021/12/03 00:54:45;;;;;;;25.38;14.82;;;;;;;-144.19;96.16;77827.38;5086723;28;20219;-89
2021/12/03 00:57:11;;;;;;;25.85;15.25;;;;;;;-144.19;96.30;77831.31;5075064;28;20524;-89
2021/12/03 00:59:38;;;;;;;31.25;15.50;;;;;;;-144.19;96.19;77795.88;5075125;28;20048;-89
2021/12/03 01:02:05;;;;;;;23.20;14.88;;;;;;;-144.19;95.77;77799.81;5075847;28;20432;-87
2021/12/03 01:04:31;;;;;;;35.17;18.75;;;;;;;-144.19;95.46;77817.53;5075146;28;20059;-89
2021/12/03 01:06:58;;;;;;;32.60;18.95;;;;;;;-144.19;95.84;77809.66;5093005;28;20051;-88
2021/12/03 01:09:25;;;;;;;26.85;16.52;;;;;;;-144.19;95.25;77815.56;5074717;28;20052;-89
2021/12/03 01:11:51;;;;;;;41.65;21.75;;;;;;;-144.19;95.19;77809.66;5055191;28;20136;-87
2021/12/03 01:14:19;;;;;;;24.13;15.15;;;;;;;-144.19;95.24;77811.63;5054896;28;20048;-88
2021/12/03 01:16:45;;;;;;;31.75;16.75;;;;;;;-144.19;94.79;77827.38;5055461;28;20052;-89
2021/12/03 01:19:12;;;;;;;28.23;17.20;;;;;;;-144.19;95.35;77815.56;5072782;28;20045;-88
2021/12/03 01:21:39;;;;;;;33.05;19.30;;;;;;;-144.19;95.40;77807.69;5073062;28;20057;-89
2021/12/03 01:24:06;;;;;;;27.83;15.48;;;;;;;-144.19;94.95;77815.56;5061604;28;20056;-90
2021/12/03 01:26:34;;;;;;;;;;;;;;;-144.19;95.31;77825.41;5074384;28;20048;-89
2021/12/03 01:29:02;;;;;;;25.73;15.70;;;;;;;-144.19;95.43;77811.63;5074910;28;19920;-89
2021/12/03 01:31:28;;;;;;;27.55;15.02;;;;;;;-144.19;95.23;77821.47;5091147;28;20048;-88
2021/12/03 01:33:55;;;;;;;27.30;16.77;;;;;;;-144.19;95.59;77847.09;5073988;28;20425;-87
2021/12/03 01:36:22;;;;;;;33.10;18.33;;;;;;;-144.19;95.76;77831.31;5053805;28;20059;-89
2021/12/03 01:38:48;;;;;;;;;;;;;;;-144.19;95.67;77805.72;5061447;28;20051;-89
2021/12/03 01:41:15;;;;;;;32.45;17.75;;;;;;;-144.19;95.24;77823.44;5074042;28;19924;-88
2021/12/03 01:43:43;;;;;;;24.63;15.68;;;;;;;-144.19;94.71;77819.50;5091254;28;20055;-87
2021/12/03 01:46:12;;;;;;;42.10;20.52;;;;;;;-144.19;94.61;77827.38;5091594;28;20056;-88
2021/12/03 01:48:40;;;;;;;34.63;19.45;;;;;;;-144.19;95.15;77843.13;5074626;28;20044;-89
2021/12/03 01:51:07;;;;;;;31.42;20.08;;;;;;;-144.19;95.32;77843.13;5074227;28;20055;-89
2021/12/03 01:53:37;;;;;;;37.63;19.95;;;;;;;-144.19;95.79;77847.09;5073795;28;20215;-89
2021/12/03 01:56:10;;;;;;;27.27;17.20;;;;;;;-144.19;96.19;77853.00;5088752;28;20040;-88
2021/12/03 01:58:37;;;;;;;36.60;20.45;;;;;;;-144.19;95.94;77858.91;5053989;28;20052;-89
2021/12/03 02:01:08;;;;;;;32.42;20.15;;;;;;;-144.19;96.21;77854.97;5054025;28;20126;-88
2021/12/03 02:03:36;;;;;;;37.45;20.70;;;;;;;-144.19;95.97;77843.13;5053785;28;20078;-89
2021/12/03 02:06:05;;;;;;;24.98;15.98;;;;;;;-144.19;96.06;77843.13;5053610;28;20041;-87
2021/12/03 02:08:32;;;;;;;33.22;19.25;;;;;;;-144.19;95.95;77839.19;5072348;28;20106;-89
2021/12/03 02:10:59;;;;;;;34.58;18.17;;;;;;;-144.19;95.79;77847.09;5054991;28;20055;-89
2021/12/03 02:13:26;;;;;;;39.92;19.60;;;;;;;-144.19;95.79;77853.00;5074051;28;20055;-89
2021/12/03 02:15:52;;;;;;;36.63;19.33;;;;;;;-144.19;95.93;77862.84;5091608;28;20131;-86
2021/12/03 02:18:19;;;;;;;37.42;19.80;;;;;;;-144.19;96.26;77858.91;5074229;28;20052;-89
2021/12/03 02:20:53;;;;;;;54.95;25.13;;;;;;;-144.19;96.03;77845.13;5074008;28;20113;-89
2021/12/03 02:23:20;;;;;;;27.00;16.60;;;;;;;-144.19;96.11;77882.53;5074304;28;20052;-88
2021/12/03 02:25:47;;;;;;;;;;;;;;;-144.19;96.59;77858.91;5078867;28;20044;-87
2021/12/03 02:28:15;;;;;;;28.10;16.58;;;;;;;-144.19;96.87;77870.72;5053635;28;20370;-88
2021/12/03 02:30:43;;;;;;;23.92;14.90;;;;;;;-144.19;97.13;77878.59;5071317;28;20053;-86
2021/12/03 02:33:10;;;;;;;28.63;15.45;;;;;;;-144.19;97.54;77876.63;5071826;28;20453;-88
2021/12/03 02:35:40;;;;;;;28.17;16.63;;;;;;;-144.19;97.84;77894.34;5068482;28;20048;-89
2021/12/03 02:38:07;;;;;;;22.67;15.55;;;;;;;-144.19;97.79;77880.56;5091457;28;20498;-89
2021/12/03 02:40:34;;;;;;;25.38;15.88;;;;;;;-144.19;97.73;77896.31;5061541;28;20059;-88
2021/12/03 02:43:00;;;;;;;31.45;19.90;;;;;;;-144.19;97.90;77894.34;5072615;28;20052;-87
2021/12/03 02:45:27;;;;;;;38.45;20.33;;;;;;;-144.19;98.14;77878.59;5053566;28;20056;-89
2021/12/03 02:47:53;;;;;;;34.00;19.88;;;;;;;-144.19;97.74;77870.72;5071202;28;20044;-87
2021/12/03 02:50:19;;;;;;;32.33;21.25;;;;;;;-144.19;97.67;77866.78;5053614;28;20055;-90
2021/12/03 02:52:48;;;;;;;29.27;20.48;;;;;;;-144.19;97.78;77870.72;5053192;28;20509;-87
2021/12/03 02:55:15;;;;;;;32.53;19.35;;;;;;;-144.19;98.00;77874.66;5054250;28;20264;-88
2021/12/03 02:57:41;;;;;;;42.33;25.13;;;;;;;-144.19;97.68;77862.84;5070969;28;20128;-87
2021/12/03 03:00:11;;;;;;;35.83;25.95;;;;;;;-144.19;97.70;77882.53;5053055;28;20048;-87
2021/12/03 03:02:38;;;;;;;37.95;25.40;;;;;;;-144.19;97.71;77882.53;5053481;28;20458;-87
2021/12/03 03:05:04;;;;;;;38.15;24.85;;;;;;;-144.19;97.93;77890.41;5053548;28;20090;-88
2021/12/03 03:07:31;;;;;;;40.10;24.75;;;;;;;-144.19;98.24;77878.59;5052903;28;20418;-88
2021/12/03 03:09:58;;;;;;;31.63;22.00;;;;;;;-144.19;98.08;77882.53;5072160;28;20045;-88
2021/12/03 03:12:24;;;;;;;34.85;21.92;;;;;;;-144.19;98.43;77882.53;5053332;28;20049;-87
2021/12/03 03:14:54;;;;;;;40.28;23.98;;;;;;;-144.19;98.01;77874.66;5052766;28;20052;-86
2021/12/03 03:17:28;;;;;;;34.65;22.20;;;;;;;-144.19;98.18;77870.72;5057044;28;20059;-87
2021/12/03 03:19:55;;;;;;;31.83;20.42;;;;;;;-144.19;98.03;77878.59;5056724;28;20059;-87
2021/12/03 03:22:23;;;;;;;35.00;22.52;;;;;;;-144.19;97.93;77854.97;5075097;28;20051;-89
2021/12/03 03:24:50;;;;;;;36.92;23.73;;;;;;;-144.19;97.34;77870.72;5067007;28;20051;-88
2021/12/03 03:27:18;;;;;;;36.42;23.67;;;;;;;-144.19;97.99;77872.69;5076544;28;20130;-88
2021/12/03 03:29:45;;;;;;;33.10;24.23;;;;;;;-144.19;97.84;77853.00;5093764;28;20056;-89
2021/12/03 03:32:12;;;;;;;43.53;27.52;;;;;;;-144.19;97.72;77858.91;5076924;28;20048;-87
2021/12/03 03:34:38;;;;;;;41.72;26.70;;;;;;;-144.19;97.86;77843.13;5069984;28;20051;-88
2021/12/03 03:37:05;;;;;;;42.38;25.95;;;;;;;-144.19;97.60;77853.00;5057035;28;20425;-87
2021/12/03 03:39:31;;;;;;;50.05;30.00;;;;;;;-144.19;97.79;77823.44;5060399;28;20430;-87
2021/12/03 03:41:58;;;;;;;40.42;28.60;;;;;;;-144.19;97.39;77827.38;5059530;28;20052;-87
2021/12/03 03:44:24;;;;;;;53.72;33.42;;;;;;;-144.19;97.37;77831.31;5077031;28;20059;-90
2021/12/03 03:46:52;;;;;;;46.53;30.05;;;;;;;-144.19;97.46;77835.25;5076043;28;20052;-87
2021/12/03 03:49:20;;;;;;;51.55;31.65;;;;;;;-144.19;97.61;77803.75;5092695;28;20505;-88
2021/12/03 03:51:48;;;;;;;39.90;28.00;;;;;;;-144.19;97.46;77831.31;5061710;28;20102;-87
2021/12/03 03:54:14;;;;;;;52.70;32.47;;;;;;;-144.19;97.86;77807.69;5059437;28;20048;-88
2021/12/03 03:56:42;;;;;;;44.78;29.50;;;;;;;-144.19;97.84;77823.44;5088556;28;20040;-87
2021/12/03 03:59:08;;;;;;;39.33;27.58;;;;;;;-144.19;98.36;77823.44;5076129;28;20052;-87
2021/12/03 04:01:35;;;;;;;45.70;30.45;;;;;;;-144.19;98.23;77819.50;5076152;28;20050;-86
2021/12/03 04:04:02;;;;;;;57.67;35.38;;;;;;;-144.19;98.36;77819.50;5076874;28;20105;-87
2021/12/03 04:06:28;;;;;;;51.10;32.53;;;;;;;-144.19;98.39;77799.81;5075504;28;20044;-89
2021/12/03 04:08:54;;;;;;;43.42;29.27;;;;;;;-144.19;98.36;77801.78;5076404;28;20054;-88
2021/12/03 04:11:23;;;;;;;48.05;29.00;;;;;;;-144.19;98.54;77807.69;5091541;28;20075;-88
2021/12/03 04:13:50;;;;;;;42.80;28.52;;;;;;;-144.19;98.54;77805.72;5073752;28;20062;-86
2021/12/03 04:16:18;;;;;;;47.45;31.45;;;;;;;-144.19;98.99;77786.03;5055720;28;20502;-88
2021/12/03 04:18:45;;;;;;;47.92;31.02;;;;;;;-144.19;98.83;77782.09;5081823;28;20040;-88
2021/12/03 04:21:11;;;;;;;57.78;34.30;;;;;;;-144.19;98.67;77778.16;5066286;28;20502;-87
2021/12/03 04:23:37;;;;;;;64.45;36.22;;;;;;;-144.19;98.71;77760.44;5069841;28;20044;-88
2021/12/03 04:26:04;;;;;;;51.95;31.88;;;;;;;-144.19;98.24;77776.19;5088101;28;20251;-88
2021/12/03 04:28:30;;;;;;;62.63;36.58;;;;;;;-144.19;98.42;77776.19;5090755;28;20044;-86
2021/12/03 04:30:57;;;;;;;62.15;36.83;;;;;;;-144.19;98.38;77732.88;5075968;28;20177;-87
2021/12/03 04:33:23;;;;;;;63.20;38.33;;;;;;;-144.19;98.28;77744.69;5076511;28;20048;-87
2021/12/03 04:35:50;;;;;;;56.45;32.83;;;;;;;-144.19;98.11;77744.69;5076456;28;20343;-88
2021/12/03 04:38:16;;;;;;;58.40;35.88;;;;;;;-144.19;98.52;77728.94;5057610;28;20068;-85
2021/12/03 04:40:43;;;;;;;;;;;;;;;-144.19;98.29;77742.72;5067643;28;20471;-88
2021/12/03 04:43:11;;;;;;;59.08;33.88;;;;;;;-144.19;98.25;77736.81;5065635;28;20305;-88
2021/12/03 04:45:37;;;;;;;;;;;;;;;-144.19;98.55;77717.13;5064451;28;20036;-88
2021/12/03 04:48:05;;;;;;;65.03;34.35;;;;;;;-144.19;98.11;77717.13;5066264;28;20373;-87
2021/12/03 04:50:36;;;;;;;69.75;35.88;;;;;;;-144.19;97.71;77709.25;5060319;28;20056;-88
2021/12/03 04:53:04;;;;;;;68.93;38.50;;;;;;;-144.19;97.84;77693.50;5072339;28;20239;-86
2021/12/03 04:55:30;;;;;;;75.50;39.35;;;;;;;-144.19;97.55;77693.50;5067762;28;20050;-88
2021/12/03 04:57:57;;;;;;;61.50;35.67;;;;;;;-144.19;97.45;77713.19;5075214;28;20526;-89
2021/12/03 05:00:45;;;;;;;77.80;38.25;;;;;;;-144.19;97.79;77713.19;5075299;28;20070;-85
2021/12/03 05:03:12;;;;;;;70.07;37.60;;;;;;;-144.19;97.76;77697.44;5093518;28;20146;-89
2021/12/03 05:05:43;;;;;;;72.82;37.97;;;;;;;-144.19;97.82;77689.56;5075609;28;20044;-87
2021/12/03 05:08:11;;;;;;;62.67;34.33;;;;;;;-144.19;97.92;77705.31;5075107;28;20060;-87
2021/12/03 05:10:40;;;;;;;67.05;36.10;;;;;;;-144.19;98.18;77697.44;5059687;28;20056;-86
2021/12/03 05:13:16;;;;;;;78.90;39.22;;;;;;;-144.19;98.02;77709.25;5055240;28;20130;-87
2021/12/03 05:15:44;;;;;;;78.50;38.80;;;;;;;-144.19;98.41;77697.44;5054945;28;20532;-88
2021/12/03 05:18:14;;;;;;;67.68;36.60;;;;;;;-144.19;98.16;77693.50;5054841;28;20052;-89
2021/12/03 05:20:42;;;;;;;72.00;38.45;;;;;;;-144.19;98.21;77693.50;5055380;28;20054;-87
2021/12/03 05:23:09;;;;;;;67.72;37.40;;;;;;;-144.19;98.17;77691.53;5059465;28;20044;-88
2021/12/03 05:25:35;;;;;;;;;;;;;;;-144.19;98.11;77697.44;5076233;28;20512;-88
2021/12/03 05:28:03;;;;;;;73.18;38.95;;;;;;;-144.19;98.20;77687.59;5075440;28;20023;-88
2021/12/03 05:30:31;;;;;;;70.70;37.33;;;;;;;-144.19;98.23;77691.53;5093417;28;20052;-87
2021/12/03 05:32:58;;;;;;;77.70;40.63;;;;;;;-144.19;98.28;77687.59;5092943;28;20541;-88
2021/12/03 05:35:26;;;;;;;72.60;39.42;;;;;;;-144.19;98.26;77669.88;5064541;28;20051;-85
2021/12/03 05:38:05;;;;;;;80.47;40.67;;;;;;;-144.19;98.23;77697.44;5063597;28;20475;-90
2021/12/03 05:40:32;;;;;;;78.65;42.95;;;;;;;-144.19;98.31;77685.63;5092103;28;20074;-88
2021/12/03 05:42:59;;;;;;;74.05;37.88;;;;;;;-144.19;98.28;77677.75;5071517;28;20050;-88
2021/12/03 05:45:28;;;;;;;66.35;37.90;;;;;;;-144.19;98.31;77695.47;5059077;28;20045;-85
2021/12/03 05:47:55;;;;;;;66.50;37.55;;;;;;;-144.19;98.36;77677.75;5054298;28;20045;-86
2021/12/03 05:50:22;;;;;;;69.20;37.08;;;;;;;-144.19;98.36;77689.56;5071763;28;20063;-85
2021/12/03 05:52:50;;;;;;;72.50;39.08;;;;;;;-144.19;98.22;77677.75;5072262;28;20044;-87
2021/12/03 05:55:18;;;;;;;69.88;36.50;;;;;;;-144.19;98.04;77685.63;5065159;28;20047;-87
2021/12/03 05:57:45;;;;;;;63.03;37.08;;;;;;;-144.19;98.22;77685.63;5073701;28;20055;-88
2021/12/03 06:00:14;;;;;;;;;;;;;;;-144.19;98.47;77677.75;5092224;28;20051;-84
2021/12/03 06:02:41;;;;;;;65.35;36.80;;;;;;;-144.19;98.31;77663.97;5073743;28;19927;-86
2021/12/03 06:05:08;;;;;;;74.82;39.00;;;;;;;-144.19;98.15;77669.88;5067645;28;20048;-90
2021/12/03 06:07:35;;;;;;;62.22;36.25;;;;;;;-144.19;98.09;77665.94;5075047;28;20052;-90
2021/12/03 06:10:03;;;;;;;67.57;37.30;;;;;;;-144.19;97.61;77669.88;5055679;28;20131;-89
2021/12/03 06:12:29;;;;;;;73.10;37.47;;;;;;;-144.19;98.05;77671.84;5074366;28;20135;-88
2021/12/03 06:14:56;;;;;;;67.20;35.92;;;;;;;-144.19;98.00;77685.63;5054907;28;20409;-87
2021/12/03 06:17:22;;;;;;;76.20;39.08;;;;;;;-144.19;98.45;77679.72;5055285;28;20051;-91
2021/12/03 06:19:53;;;;;;;78.40;40.03;;;;;;;-144.19;98.12;77677.75;5070868;28;20086;-88
2021/12/03 06:22:20;;;;;;;75.53;39.33;;;;;;;-144.19;98.05;77671.84;5062790;28;20500;-91
2021/12/03 06:24:46;;;;;;;74.70;34.85;;;;;;;-144.19;97.97;77669.88;5067591;28;20058;-88
2021/12/03 06:27:13;;;;;;;72.15;37.50;;;;;;;-144.19;97.77;77669.88;5082706;28;20044;-86
2021/12/03 06:29:39;;;;;;;71.28;38.70;;;;;;;-144.19;97.81;77697.44;5063447;28;20044;-88
2021/12/03 06:32:09;;;;;;;77.95;39.80;;;;;;;-144.19;98.21;77669.88;5085689;28;20089;-88
2021/12/03 06:34:38;;;;;;;82.80;40.55;;;;;;;-144.19;98.10;77695.47;5066313;28;20070;-87
2021/12/03 06:37:06;;;;;;;81.70;39.58;;;;;;;-144.19;98.43;77667.91;5065102;28;20088;-87
2021/12/03 06:39:33;;;;;;;81.95;41.35;;;;;;;-144.19;98.27;77658.06;5086692;28;20044;-87
2021/12/03 06:42:00;;;;;;;80.40;38.88;;;;;;;-144.19;98.27;77662.00;5085331;28;20047;-87
2021/12/03 06:44:26;;;;;;;80.68;40.42;;;;;;;-144.19;97.97;77656.09;5068110;28;20040;-87
2021/12/03 06:46:53;;;;;;;84.07;40.63;;;;;;;-144.19;97.98;77650.19;5058371;28;20049;-88
2021/12/03 06:49:21;;;;;;;84.45;39.35;;;;;;;-144.19;97.38;77654.13;5083236;28;20048;-87
2021/12/03 06:51:50;;;;;;;80.75;39.05;;;;;;;-144.19;98.05;77658.06;5077661;28;20055;-89
2021/12/03 06:54:25;;;;;;;86.55;39.40;;;;;;;-144.19;98.18;77656.09;5070066;28;20041;-88
2021/12/03 06:56:52;;;;;;;85.07;38.78;;;;;;;-144.19;98.17;77650.19;5089369;28;20318;-86
2021/12/03 06:59:20;;;;;;;;;;;;;;;-144.19;98.13;77667.91;5069971;28;20052;-88
2021/12/03 07:01:47;;;;;;;87.63;39.75;;;;;;;-144.19;98.39;77658.06;5072718;28;20054;-88
2021/12/03 07:04:14;;;;;;;90.45;41.17;;;;;;;-144.19;98.32;77650.19;5070444;28;20052;-87
2021/12/03 07:06:41;;;;;;;95.03;39.75;;;;;;;-144.19;98.17;77648.22;5070253;28;20131;-88
2021/12/03 07:09:08;;;;;;;95.00;39.25;;;;;;;-144.19;97.91;77642.31;5088262;28;20509;-87
2021/12/03 07:11:34;;;;;;;90.55;39.55;;;;;;;-144.19;97.50;77662.00;5087896;28;20573;-88
2021/12/03 07:14:02;;;;;;;88.75;38.33;;;;;;;-144.19;97.61;77662.00;5072424;28;20370;-87
2021/12/03 07:16:29;;;;;;;103.90;39.95;;;;;;;-144.19;97.55;77654.13;5070225;28;20075;-90
2021/12/03 07:18:56;;;;;;;103.03;40.95;;;;;;;-144.19;97.39;77638.38;5069022;28;20166;-90
2021/12/03 07:21:22;;;;;;;89.10;39.25;;;;;;;-144.19;97.04;77632.47;5072683;28;20040;-87
2021/12/03 07:23:50;;;;;;;81.93;33.47;;;;;;;-144.19;97.51;77669.88;5069754;28;20060;-85
2021/12/03 07:26:18;;;;;;;82.72;34.85;;;;;;;-144.19;97.66;77658.06;5070176;28;20066;-85
2021/12/03 07:28:45;;;;;;;91.25;38.53;;;;;;;-144.19;97.65;77656.09;5091034;28;20059;-87
2021/12/03 07:31:11;;;;;;;77.80;34.63;;;;;;;-144.19;97.56;77654.13;5069370;28;20058;-86
2021/12/03 07:33:39;;;;;;;80.47;34.33;;;;;;;-144.19;97.39;77650.19;5091676;28;20086;-87
2021/12/03 07:36:06;;;;;;;90.55;38.15;;;;;;;-144.19;97.55;77632.47;5085756;28;20493;-88
2021/12/03 07:38:34;;;;;;;;;;;;;;;-144.19;97.36;77628.53;5072446;28;20439;-87
2021/12/03 07:41:01;;;;;;;73.75;31.80;;;;;;;-144.19;97.73;77654.13;5071726;28;19920;-87
2021/12/03 07:43:27;;;;;;;92.13;38.15;;;;;;;-144.19;97.94;77642.31;5070338;28;20058;-86
2021/12/03 07:45:54;;;;;;;85.00;34.70;;;;;;;-144.19;98.19;77634.44;5070773;28;20048;-86
2021/12/03 07:48:22;;;;;;;89.22;35.92;;;;;;;-144.19;98.26;77634.44;5073552;28;20044;-85
2021/12/03 07:50:51;;;;;;;94.50;36.78;;;;;;;-144.19;98.07;77620.66;5091050;28;20051;-86
2021/12/03 07:53:18;;;;;;;91.47;34.60;;;;;;;-144.19;98.06;77610.81;5074302;28;20425;-86
2021/12/03 07:55:47;;;;;;;85.85;31.77;;;;;;;-144.19;97.80;77604.91;5071254;28;20044;-87
2021/12/03 07:58:14;;;;;;;88.43;35.45;;;;;;;-144.19;97.44;77616.72;5089076;28;20463;-86
2021/12/03 08:00:43;;;;;;;84.13;33.58;;;;;;;-144.19;97.37;77600.97;5072075;28;20083;-90
2021/12/03 08:03:16;;;;;;;87.18;35.38;;;;;;;-144.19;97.20;77595.06;5090226;28;20044;-88
2021/12/03 08:05:42;;;;;;;88.78;34.42;;;;;;;-144.19;97.40;77604.91;5080787;28;20044;-87
2021/12/03 08:08:09;;;;;;;95.30;38.13;;;;;;;-144.19;97.23;77583.25;5100558;28;20112;-88
2021/12/03 08:10:36;;;;;;;94.20;37.15;;;;;;;-144.19;97.23;77591.13;5074482;28;20044;-86
2021/12/03 08:13:02;;;;;;;82.05;34.30;;;;;;;-144.19;97.31;77599.00;5074394;28;20134;-88
2021/12/03 08:15:43;;;;;;;95.93;37.20;;;;;;;-144.19;97.37;77587.19;5064286;28;20084;-87
2021/12/03 08:18:09;;;;;;;74.05;30.50;;;;;;;-144.19;96.99;77587.19;5091376;28;20087;-88
2021/12/03 08:20:36;;;;;;;89.68;35.95;;;;;;;-144.19;97.07;77587.19;5074892;28;20052;-88
2021/12/03 08:23:02;;;;;;;85.18;34.75;;;;;;;-144.19;97.16;77575.38;5090184;28;20071;-87
2021/12/03 08:25:29;;;;;;;89.00;34.35;;;;;;;-144.19;97.30;77587.19;5085202;28;20044;-87
2021/12/03 08:27:56;;;;;;;74.93;32.25;;;;;;;-144.19;97.58;77595.06;5080777;28;20054;-87
2021/12/03 08:30:27;;;;;;;91.18;37.85;;;;;;;-144.19;97.54;77583.25;5085789;28;20075;-87
2021/12/03 08:32:53;;;;;;;85.50;34.67;;;;;;;-144.19;97.52;77585.22;5085271;28;20082;-88
2021/12/03 08:35:20;;;;;;;69.43;30.70;;;;;;;-144.19;97.61;77587.19;5081358;28;20135;-90
2021/12/03 08:37:47;;;;;;;70.97;29.67;;;;;;;-144.19;97.85;77583.25;5083507;28;20373;-87
2021/12/03 08:40:14;;;;;;;77.00;30.08;;;;;;;-144.19;98.16;77575.38;5072244;28;20048;-89
2021/12/03 08:42:41;;;;;;;80.13;37.08;;;;;;;-144.19;98.11;77567.50;5061441;28;20395;-87
2021/12/03 08:45:08;;;;;;;87.53;37.13;;;;;;;-144.19;98.00;77553.72;5064625;28;20045;-89
2021/12/03 08:47:36;;;;;;;77.13;33.67;;;;;;;-144.19;97.55;77541.88;5079236;28;20048;-87
2021/12/03 08:50:10;;;;;;;80.13;33.75;;;;;;;-144.19;97.24;77557.63;5083437;28;20055;-88
2021/12/03 08:53:02;;;;;;;78.55;33.08;;;;;;;-144.19;97.23;77551.72;5081036;28;20064;-87
2021/12/03 08:55:33;;;;;;;76.65;32.30;;;;;;;-144.19;97.15;77553.72;5076134;28;20049;-87
2021/12/03 08:57:59;;;;;;;83.97;31.75;;;;;;;-144.19;97.17;77551.72;5072423;28;20066;-87
2021/12/03 09:00:26;;;;;;;71.78;30.90;;;;;;;-144.19;97.43;77543.84;5086129;28;20044;-86
2021/12/03 09:02:53;;;;;;;75.20;31.42;;;;;;;-144.19;97.67;77541.88;5086112;28;20051;-87
2021/12/03 09:05:19;;;;;;;84.70;34.00;;;;;;;-144.19;97.45;77528.09;5087326;28;20071;-87
2021/12/03 09:07:46;;;;;;;73.68;30.77;;;;;;;-144.19;97.57;77553.72;5083957;28;20047;-86
2021/12/03 09:10:19;;;;;;;73.70;32.45;;;;;;;-144.19;97.68;77532.03;5068538;28;20088;-87
2021/12/03 09:12:45;;;;;;;78.93;32.42;;;;;;;-144.19;97.86;77512.34;5067345;28;20454;-86
2021/12/03 09:15:15;;;;;;;72.68;32.28;;;;;;;-144.19;97.77;77524.16;5067018;28;20049;-89
2021/12/03 09:18:01;;;;;;;72.53;31.30;;;;;;;-144.19;97.82;77530.06;5063704;28;20044;-87
2021/12/03 09:20:43;;;;;;;66.68;29.65;;;;;;;-144.19;97.51;77514.31;5064740;28;20053;-88
2021/12/03 09:26:07;;;;;;;73.40;31.00;;;;;;;-144.19;97.94;77524.16;5064526;28;20113;-84
2021/12/03 09:28:36;;;;;;;64.78;29.23;;;;;;;-144.19;97.96;77516.28;5082186;28;20521;-87
2021/12/03 09:31:04;;;;;;;70.28;29.27;;;;;;;-144.19;98.25;77528.09;5067240;28;20055;-86
2021/12/03 09:33:32;;;;;;;68.18;31.60;;;;;;;-144.19;98.28;77512.34;5078091;28;20055;-87
2021/12/03 09:36:02;;;;;;;65.50;26.15;;;;;;;-144.19;98.26;77504.47;5090785;28;20048;-87
2021/12/03 09:38:32;;;;;;;63.58;28.13;;;;;;;-144.19;98.05;77496.59;5100318;28;20056;-86
2021/12/03 09:41:11;;;;;;;73.32;32.30;;;;;;;-144.19;97.91;77484.78;5101213;28;20066;-85
2021/12/03 09:43:41;;;;;;;72.13;30.25;;;;;;;-144.19;97.56;77502.50;5078414;28;20056;-85
2021/12/03 09:46:17;;;;;;;62.42;29.65;;;;;;;-144.19;97.89;77494.63;5085509;28;20147;-86
2021/12/03 09:51:35;;;;;;;60.78;27.13;;;;;;;-144.19;97.93;77469.03;5088669;28;20085;-88
2021/12/03 09:56:41;;;;;;;71.80;30.75;;;;;;;-144.19;97.96;77457.22;5089694;28;20121;-87
2021/12/03 10:02:03;;;;;;;77.35;32.67;;;;;;;-144.19;97.73;77439.50;5104190;28;20058;-88
2021/12/03 10:15:22;;;;;;;53.38;25.70;;;;;;;-144.19;95.00;77431.63;5102416;28;20519;-86
2021/12/03 10:17:59;;;;;;;66.45;27.90;;;;;;;-144.19;94.54;77413.91;5077537;28;20064;-86
2021/12/03 10:24:10;;;;;;;57.90;26.45;;;;;;;-144.19;92.74;77394.22;5090189;28;20059;-87
2021/12/03 10:29:25;;;;;;;46.80;23.35;;;;;;;-144.19;90.52;77386.34;5092445;28;20079;-88
2021/12/03 10:40:28;;;;;;;53.45;24.27;;;;;;;-144.19;87.11;77339.09;5091847;28;20054;-86
2021/12/03 10:43:31;;;;;;;54.70;23.67;;;;;;;-144.19;85.96;77311.53;5071060;28;20044;-87
2021/12/03 10:46:24;;;;;;;40.83;20.40;;;;;;;-144.19;85.25;77327.28;5077234;28;20048;-85
2021/12/03 10:51:46;;;;;;;49.05;21.55;;;;;;;-144.19;83.80;77291.84;5093413;28;20044;-87
2021/12/03 11:08:04;;;;;;;44.13;15.48;;;;;;;-144.19;82.36;77262.31;5079922;28;20045;-87
2021/12/03 11:14:29;;;;;;;32.47;16.20;;;;;;;-144.19;82.03;77252.47;5046450;28;20082;-87
2021/12/03 11:28:18;;;;;;;33.17;15.93;;;;;;;-144.19;80.90;77185.53;5097852;28;20117;-88
2021/12/03 11:33:52;;;;;;;32.45;15.27;;;;;;;-144.19;80.11;77169.78;5088659;28;20062;-87
2021/12/03 11:39:32;;;;;;;25.73;13.32;;;;;;;-144.19;79.85;77140.25;5086990;28;20382;-84
2021/12/03 12:24:00;;;;;;;17.10;9.52;;;;;;;-144.19;76.66;77073.31;5086859;28;20043;-87
2021/12/03 12:27:15;;;;;;;24.60;8.88;;;;;;;-144.19;75.21;77069.38;5084982;28;20048;-88
2021/12/03 13:06:17;;;;;;;24.90;10.27;;;;;;;-144.19;83.58;77079.22;5094105;28;20052;-85
2021/12/03 13:08:29;;;;;;;20.65;10.52;;;;;;;-144.19;84.14;77087.09;5086327;28;20048;-89
2021/12/03 13:33:45;;;;;;;21.33;9.43;;;;;;;-144.19;85.38;77047.72;5084284;28;20048;-87
2021/12/03 13:36:52;;;;;;;27.23;10.70;;;;;;;-144.19;86.05;77026.06;5080993;28;20059;-86
2021/12/03 13:46:11;;;;;;;20.77;9.48;;;;;;;-144.19;84.64;77010.31;5085418;28;20040;-87
2021/12/03 13:57:37;;;;;;;23.00;12.13;;;;;;;-144.19;84.48;77000.47;5085319;28;20044;-90
2021/12/03 14:34:40;;;;;;;18.77;7.20;;;;;;;-144.19;79.86;76945.38;5093591;28;20048;-88
2021/12/03 14:44:27;;;;;;;17.95;6.88;;;;;;;-144.19;81.87;76937.50;5091202;28;20054;-88
2021/12/03 14:47:32;;;;;;;16.08;6.63;;;;;;;-144.19;82.78;76967.00;5069688;28;20054;-86
2021/12/03 14:55:57;;;;;;;15.38;6.38;;;;;;;-144.19;83.87;76945.38;5077772;28;20526;-88
2021/12/03 14:58:32;;;;;;;19.25;7.57;;;;;;;-144.19;83.02;76933.56;5055750;28;20059;-85
2021/12/03 15:01:13;;;;;;;17.40;5.53;;;;;;;-144.19;83.59;76937.50;5088893;28;20051;-87
2021/12/03 15:06:36;;;;;;;14.27;6.50;;;;;;;-144.19;82.85;76925.69;5083014;28;20623;-86
2021/12/03 15:09:13;;;;;;;13.90;5.95;;;;;;;-144.19;82.91;76921.75;5092910;28;20042;-86
2021/12/03 15:25:46;;;;;;;16.70;7.13;;;;;;;-144.19;82.54;76915.84;5020458;28;20049;-87
2021/12/03 15:33:34;;;;;;;15.85;7.20;;;;;;;-144.19;82.06;76906.00;5083486;28;20052;-88